Latest Weather Observations for Thevenard

IDS60801

Issued at 3:02 am CST Monday 20 April 2015 (issued every 30 minutes, with the page automatically refreshed every 10 minutes)

About weather observations | Map of weather stations | Latest weather observations for SA | Other Formats
Station Details ID: 018200 Name: THEVENARD WIND Lat: -32.18 Lon: 133.63 Height: 8.85 m
Data from the previous 72 hours. | See also: Recent months for locations in South Australia
Date/Time
CST
Temp
°C
App
Temp
°C
Dew
Point
Rel
Hum
%
Delta-T
°C
Wind Press
QNH
hPa
Press
MSL
hPa
Rain
since 9 am
mm
Dir
 
Spd
km/h
Gust
km/h
Spd
kts
Gust
kts
20/03:00am - - - - - ESE 26 32 14 17 - - -
20/02:30am - - - - - ESE 26 30 14 16 - - -
20/02:00am - - - - - ESE 26 32 14 17 - - -
20/01:30am - - - - - ESE 32 44 17 24 - - -
20/01:00am - - - - - ESE 33 41 18 22 - - -
20/12:30am - - - - - ESE 37 43 20 23 - - -
20/12:00am - - - - - ESE 33 44 18 24 - - -
 
Date/Time
CST
Temp
°C
App
Temp
°C
Dew
Point
Rel
Hum
%
Delta-T
°C
Wind Press
QNH
hPa
Press
MSL
hPa
Rain
since 9 am
mm
Dir
 
Spd
km/h
Gust
km/h
Spd
kts
Gust
kts
19/11:30pm - - - - - ESE 37 44 20 24 - - -
19/11:00pm - - - - - ESE 35 46 19 25 - - -
19/10:30pm - - - - - ESE 35 46 19 25 - - -
19/10:00pm - - - - - ESE 28 44 15 24 - - -
19/09:30pm - - - - - SE 28 37 15 20 - - -
19/09:00pm - - - - - SE 32 43 17 23 - - -
19/08:30pm - - - - - SSE 41 46 22 25 - - -
19/08:00pm - - - - - SE 33 41 18 22 - - -
19/07:30pm - - - - - SE 37 46 20 25 - - -
19/07:00pm - - - - - SSE 43 48 23 26 - - -
19/06:30pm - - - - - SSE 43 52 23 28 - - -
19/06:00pm - - - - - SSE 43 50 23 27 - - -
19/05:30pm - - - - - SSE 39 46 21 25 - - -
19/05:00pm - - - - - SSE 35 44 19 24 - - -
19/04:30pm - - - - - S 33 43 18 23 - - -
19/04:00pm - - - - - SSE 30 37 16 20 - - -
19/03:30pm - - - - - SSE 30 39 16 21 - - -
19/03:00pm - - - - - SSE 30 39 16 21 - - -
19/02:30pm - - - - - SSE 32 39 17 21 - - -
19/02:00pm - - - - - SE 32 39 17 21 - - -
19/01:30pm - - - - - SE 30 39 16 21 - - -
19/01:00pm - - - - - SE 32 37 17 20 - - -
19/12:30pm - - - - - SE 32 39 17 21 - - -
19/12:00pm - - - - - SE 32 41 17 22 - - -
19/11:30am - - - - - SE 32 43 17 23 - - -
19/11:00am - - - - - ESE 26 35 14 19 - - -
19/10:30am - - - - - SE 30 39 16 21 - - -
19/10:00am - - - - - ESE 26 39 14 21 - - -
19/09:30am - - - - - ESE 26 35 14 19 - - -
19/09:00am - - - - - ESE 30 35 16 19 - - -
19/08:30am - - - - - ESE 32 41 17 22 - - -
19/08:00am - - - - - ESE 30 37 16 20 - - -
19/07:30am - - - - - ESE 28 33 15 18 - - -
19/07:00am - - - - - E 26 32 14 17 - - -
19/06:30am - - - - - E 24 28 13 15 - - -
19/06:00am - - - - - ESE 32 37 17 20 - - -
19/05:30am - - - - - E 24 30 13 16 - - -
19/05:00am - - - - - ESE 26 37 14 20 - - -
19/04:30am - - - - - SE 28 37 15 20 - - -
19/04:00am - - - - - SE 28 35 15 19 - - -
19/03:30am - - - - - SE 33 39 18 21 - - -
19/03:00am - - - - - SSE 37 44 20 24 - - -
19/02:30am - - - - - SSE 39 46 21 25 - - -
19/02:00am - - - - - SSE 32 39 17 21 - - -
19/01:30am - - - - - SSE 35 43 19 23 - - -
19/01:00am - - - - - SSE 35 44 19 24 - - -
19/12:30am - - - - - SSE 37 44 20 24 - - -
19/12:00am - - - - - SSE 43 52 23 28 - - -
 
Date/Time
CST
Temp
°C
App
Temp
°C
Dew
Point
Rel
Hum
%
Delta-T
°C
Wind Press
QNH
hPa
Press
MSL
hPa
Rain
since 9 am
mm
Dir
 
Spd
km/h
Gust
km/h
Spd
kts
Gust
kts
18/11:30pm - - - - - S 39 46 21 25 - - -
18/11:00pm - - - - - S 37 46 20 25 - - -
18/10:30pm - - - - - SSE 41 50 22 27 - - -
18/10:00pm - - - - - SSE 39 50 21 27 - - -
18/09:30pm - - - - - S 41 52 22 28 - - -
18/09:00pm - - - - - SSE 37 44 20 24 - - -
18/08:30pm - - - - - S 41 52 22 28 - - -
18/08:00pm - - - - - S 41 52 22 28 - - -
18/07:30pm - - - - - S 41 50 22 27 - - -
18/07:00pm - - - - - S 41 48 22 26 - - -
18/06:30pm - - - - - S 43 52 23 28 - - -
18/06:00pm - - - - - SSW 28 39 15 21 - - -
18/05:30pm - - - - - SSW 32 39 17 21 - - -
18/05:00pm - - - - - WSW 20 24 11 13 - - -
18/04:30pm - - - - - WSW 32 43 17 23 - - -
18/04:00pm - - - - - WSW 28 33 15 18 - - -
18/03:30pm - - - - - WSW 28 33 15 18 - - -
18/03:00pm - - - - - WSW 24 30 13 16 - - -
18/02:30pm - - - - - W 26 32 14 17 - - -
18/02:00pm - - - - - W 26 30 14 16 - - -
18/01:30pm - - - - - W 26 32 14 17 - - -
18/01:00pm - - - - - W 26 32 14 17 - - -
18/12:30pm - - - - - W 24 28 13 15 - - -
18/12:00pm - - - - - W 20 24 11 13 - - -
18/11:30am - - - - - W 22 28 12 15 - - -
18/11:00am - - - - - W 22 24 12 13 - - -
18/10:30am - - - - - WSW 19 22 10 12 - - -
18/10:00am - - - - - WSW 19 22 10 12 - - -
18/09:30am - - - - - W 13 17 7 9 - - -
18/09:00am - - - - - NW 9 13 5 7 - - -
18/08:30am - - - - - WNW 13 15 7 8 - - -
18/08:00am - - - - - NW 11 15 6 8 - - -
18/07:30am - - - - - WSW 17 22 9 12 - - -
18/07:00am - - - - - WSW 17 22 9 12 - - -
18/06:30am - - - - - SW 22 30 12 16 - - -
18/06:00am - - - - - WSW 22 26 12 14 - - -
18/05:30am - - - - - SW 20 24 11 13 - - -
18/05:00am - - - - - WNW 17 19 9 10 - - -
18/04:30am - - - - - W 20 24 11 13 - - -
18/04:00am - - - - - WSW 19 28 10 15 - - -
18/03:30am - - - - - SW 19 26 10 14 - - -
18/03:00am - - - - - WSW 17 20 9 11 - - -
18/02:30am - - - - - SSW 19 22 10 12 - - -
18/02:00am - - - - - SSW 20 24 11 13 - - -
18/01:30am - - - - - SW 22 30 12 16 - - -
18/01:00am - - - - - WSW 20 28 11 15 - - -
18/12:30am - - - - - SSW 22 28 12 15 - - -
18/12:00am - - - - - SW 22 28 12 15 - - -
 
Date/Time
CST
Temp
°C
App
Temp
°C
Dew
Point
Rel
Hum
%
Delta-T
°C
Wind Press
QNH
hPa
Press
MSL
hPa
Rain
since 9 am
mm
Dir
 
Spd
km/h
Gust
km/h
Spd
kts
Gust
kts
17/11:30pm - - - - - SSW 22 28 12 15 - - -
17/11:00pm - - - - - SW 17 19 9 10 - - -
17/10:30pm - - - - - SSW 19 22 10 12 - - -
17/10:00pm - - - - - SSW 20 24 11 13 - - -
17/09:30pm - - - - - SSW 19 22 10 12 - - -
17/09:00pm - - - - - SSW 19 22 10 12 - - -
17/08:30pm - - - - - SSW 17 20 9 11 - - -
17/08:00pm - - - - - SSW 17 19 9 10 - - -
17/07:30pm - - - - - SSW 26 35 14 19 - - -
17/07:00pm - - - - - SSW 22 26 12 14 - - -
17/06:30pm - - - - - SSW 22 26 12 14 - - -
17/06:00pm - - - - - SSW 24 30 13 16 - - -
17/05:30pm - - - - - S 26 30 14 16 - - -
17/05:00pm - - - - - S 24 30 13 16 - - -
17/04:30pm - - - - - S 24 28 13 15 - - -
17/04:00pm - - - - - S 24 28 13 15 - - -
17/03:30pm - - - - - S 26 32 14 17 - - -
17/03:00pm - - - - - S 26 30 14 16 - - -
17/02:30pm - - - - - S 26 32 14 17 - - -
17/02:00pm - - - - - S 24 32 13 17 - - -
17/01:30pm - - - - - S 26 32 14 17 - - -
17/01:00pm - - - - - S 24 28 13 15 - - -
17/12:30pm - - - - - SSE 22 26 12 14 - - -
17/12:00pm - - - - - S 26 32 14 17 - - -
17/11:30am - - - - - S 24 30 13 16 - - -
17/11:00am - - - - - S 20 22 11 12 - - -
17/10:30am - - - - - SSE 22 26 12 14 - - -
17/10:00am - - - - - SSE 22 28 12 15 - - -
17/09:30am - - - - - SSE 22 28 12 15 - - -
17/09:00am - - - - - SSE 24 28 13 15 - - -
17/08:30am - - - - - SE 24 32 13 17 - - -
17/08:00am - - - - - SSE 28 32 15 17 - - -
17/07:30am - - - - - SSE 26 33 14 18 - - -
17/07:00am - - - - - SSE 28 39 15 21 - - -
17/06:30am - - - - - SSE 24 30 13 16 - - -
17/06:00am - - - - - S 28 33 15 18 - - -
17/05:30am - - - - - SSE 28 32 15 17 - - -
17/05:00am - - - - - SSE 26 32 14 17 - - -
17/04:30am - - - - - SSE 26 32 14 17 - - -
17/04:00am - - - - - SSE 26 30 14 16 - - -
17/03:30am - - - - - SE 22 28 12 15 - - -

Other Formats:

Comma delimited format used in spreadsheet applications
http://www.bom.gov.au/fwo/IDS60801/IDS60801.95653.axf

JavaScript Object Notation format (JSON) in row-major order
http://www.bom.gov.au/fwo/IDS60801/IDS60801.95653.json